createdAt,value
2018-05-25T00:00:14.853Z,101714.70
2018-05-25T00:03:20.566Z,101719.02
2018-05-25T00:06:25.974Z,101717.92
2018-05-25T00:09:31.153Z,101720.02
2018-05-25T00:12:36.991Z,101720.48
2018-05-25T00:15:42.649Z,101718.22
2018-05-25T00:18:47.852Z,101722.02
2018-05-25T00:21:53.822Z,101722.52
2018-05-25T00:24:59.433Z,101725.82
2018-05-25T00:28:04.666Z,101724.65
2018-05-25T00:31:09.914Z,101729.95
2018-05-25T00:34:15.870Z,101732.58
2018-05-25T00:37:22.033Z,101725.48
2018-05-25T00:40:28.160Z,101726.19
2018-05-25T00:43:34.272Z,101726.68
2018-05-25T00:46:39.888Z,101720.38
2018-05-25T00:49:45.109Z,101719.67
2018-05-25T00:52:51.220Z,101718.66
2018-05-25T00:55:57.720Z,101716.15
2018-05-25T00:59:03.536Z,101710.27
2018-05-25T01:02:09.564Z,101719.60
2018-05-25T01:05:15.473Z,101719.34
2018-05-25T01:08:20.744Z,101719.34
2018-05-25T01:11:26.401Z,101718.25
2018-05-25T01:14:32.507Z,101724.53
2018-05-25T01:17:38.144Z,101720.36
2018-05-25T01:20:44.241Z,101720.94
2018-05-25T01:23:49.470Z,101713.46
2018-05-25T01:26:55.325Z,101713.59
2018-05-25T01:30:00.565Z,101717.42
2018-05-25T01:33:05.473Z,101713.66
2018-05-25T01:36:10.687Z,101718.19
2018-05-25T01:39:16.382Z,101711.01
2018-05-25T01:42:22.320Z,101711.97
2018-05-25T01:45:28.163Z,101712.58
2018-05-25T01:48:33.135Z,101712.69
2018-05-25T01:51:38.328Z,101711.59
2018-05-25T01:54:43.537Z,101703.84
2018-05-25T01:57:49.841Z,101706.05
2018-05-25T02:00:54.761Z,101703.84
2018-05-25T02:03:59.960Z,101708.06
2018-05-25T02:07:05.178Z,101707.11
2018-05-25T02:10:10.103Z,101702.18
2018-05-25T02:13:15.945Z,101701.34
2018-05-25T02:16:21.557Z,101700.85
2018-05-25T02:19:27.493Z,101702.30
2018-05-25T02:22:33.496Z,101700.93
2018-05-25T02:25:39.529Z,101698.53
2018-05-25T02:28:45.463Z,101699.06
2018-05-25T02:31:51.094Z,101697.36
2018-05-25T02:34:56.298Z,101701.30
2018-05-25T02:38:02.461Z,101698.00
2018-05-25T02:41:08.469Z,101693.30
2018-05-25T02:44:14.217Z,101694.32
2018-05-25T02:47:20.306Z,101692.27
2018-05-25T02:50:25.717Z,101691.13
2018-05-25T02:53:31.461Z,101687.86
2018-05-25T02:56:36.663Z,101685.01
2018-05-25T02:59:42.706Z,101682.69
2018-05-25T03:02:48.635Z,101686.56
2018-05-25T03:05:55.541Z,101679.38
2018-05-25T03:09:00.757Z,101685.94
2018-05-25T03:12:05.347Z,101678.27
2018-05-25T03:15:11.278Z,101686.58
2018-05-25T03:18:17.197Z,101684.11
2018-05-25T03:21:23.329Z,101692.45
2018-05-25T03:24:29.505Z,101688.31
2018-05-25T03:27:35.537Z,101690.13
2018-05-25T03:30:41.413Z,101691.91
2018-05-25T03:33:46.281Z,101694.03
2018-05-25T03:36:51.542Z,101694.59
2018-05-25T03:39:57.255Z,101703.66
2018-05-25T03:43:04.349Z,101697.25
2018-05-25T03:46:10.525Z,101700.39
2018-05-25T03:49:16.221Z,101699.14
2018-05-25T03:52:22.062Z,101700.50
2018-05-25T03:55:27.968Z,101697.28
2018-05-25T03:58:44.145Z,101698.68
2018-05-25T04:01:55.894Z,101696.83
2018-05-25T04:05:01.730Z,101705.38
2018-05-25T04:08:07.741Z,101710.55
2018-05-25T04:11:14.788Z,101711.91
2018-05-25T04:14:22.019Z,101705.84
2018-05-25T04:17:27.385Z,101699.91
2018-05-25T04:20:33.431Z,101702.30
2018-05-25T04:23:38.988Z,101698.22
2018-05-25T04:26:44.194Z,101700.84
2018-05-25T04:29:50.022Z,101704.98
2018-05-25T04:32:56.153Z,101695.83
2018-05-25T04:36:02.278Z,101699.10
2018-05-25T04:39:07.483Z,101692.05
2018-05-25T04:42:12.676Z,101694.39
2018-05-25T04:45:17.601Z,101695.95
2018-05-25T04:48:23.425Z,101692.38
2018-05-25T04:51:30.281Z,101689.16
2018-05-25T04:54:35.901Z,101693.25
2018-05-25T04:57:41.934Z,101688.84
2018-05-25T05:00:47.142Z,101687.56
2018-05-25T05:03:52.858Z,101686.14
2018-05-25T05:06:58.072Z,101689.11
2018-05-25T05:10:03.443Z,101686.86
2018-05-25T05:13:09.261Z,101687.52
2018-05-25T05:16:15.373Z,101687.80
2018-05-25T05:19:22.084Z,101687.53
2018-05-25T05:22:27.900Z,101698.52
2018-05-25T05:25:34.025Z,101700.90
2018-05-25T05:28:40.057Z,101701.08
2018-05-25T05:31:46.077Z,101699.58
2018-05-25T05:34:52.178Z,101705.39
2018-05-25T05:37:58.301Z,101703.85
2018-05-25T05:41:04.030Z,101702.28
2018-05-25T05:44:10.137Z,101708.05
2018-05-25T05:47:15.778Z,101699.63
2018-05-25T05:50:21.002Z,101700.67
2018-05-25T05:53:26.245Z,101702.52
2018-05-25T05:56:31.421Z,101710.03
2018-05-25T05:59:37.450Z,101717.05
2018-05-25T06:02:42.657Z,101711.54
2018-05-25T06:05:47.869Z,101701.28
2018-05-25T06:08:53.964Z,101711.25
2018-05-25T06:11:59.182Z,101718.22
2018-05-25T06:15:04.679Z,101706.66
2018-05-25T06:18:09.665Z,101710.16
2018-05-25T06:21:14.878Z,101709.77
2018-05-25T06:24:19.814Z,101711.43
2018-05-25T06:27:24.749Z,101718.76
2018-05-25T06:30:30.382Z,101716.64
2018-05-25T06:33:35.319Z,101723.97
2018-05-25T06:36:41.337Z,101719.15
2018-05-25T06:39:46.580Z,101729.44
2018-05-25T06:42:52.612Z,101728.61
2018-05-25T06:45:58.785Z,101730.34
2018-05-25T06:49:04.006Z,101737.52
2018-05-25T06:52:09.661Z,101735.36
2018-05-25T06:55:16.392Z,101740.97
2018-05-25T06:58:22.201Z,101740.88
2018-05-25T07:01:27.416Z,101743.80
2018-05-25T07:04:33.548Z,101741.94
2018-05-25T07:07:39.481Z,101743.64
2018-05-25T07:10:45.094Z,101748.67
2018-05-25T07:13:50.314Z,101745.14
2018-05-25T07:16:56.285Z,101736.78
2018-05-25T07:20:01.654Z,101741.34
2018-05-25T07:23:06.857Z,101749.79
2018-05-25T07:26:12.071Z,101746.19
2018-05-25T07:29:18.705Z,101747.77
2018-05-25T07:32:23.925Z,101750.98
2018-05-25T07:35:29.134Z,101745.50
2018-05-25T07:38:35.457Z,101740.05
2018-05-25T07:41:40.394Z,101743.84
2018-05-25T07:44:45.606Z,101750.56
2018-05-25T07:47:51.568Z,101744.64
2018-05-25T07:50:57.513Z,101745.75
2018-05-25T07:54:03.534Z,101745.17
2018-05-25T07:57:09.557Z,101743.14
2018-05-25T08:00:15.228Z,101739.42
2018-05-25T08:03:20.602Z,101739.45
2018-05-25T08:06:25.851Z,101746.13
2018-05-25T08:09:32.177Z,101739.69
2018-05-25T08:12:37.398Z,101742.81
2018-05-25T08:15:42.793Z,101738.14
2018-05-25T08:18:49.197Z,101734.28
2018-05-25T08:21:55.001Z,101731.73
2018-05-25T08:25:00.969Z,101725.98
2018-05-25T08:28:06.184Z,101730.89
2018-05-25T08:31:11.061Z,101727.31
2018-05-25T08:34:16.273Z,101733.91
2018-05-25T08:37:21.477Z,101733.57
2018-05-25T08:40:27.114Z,101738.32
2018-05-25T08:43:33.129Z,101736.94
2018-05-25T08:46:38.344Z,101732.44
2018-05-25T08:49:43.549Z,101725.41
2018-05-25T08:52:48.745Z,101734.05
2018-05-25T08:55:53.970Z,101728.81
2018-05-25T08:58:59.177Z,101730.91
2018-05-25T09:02:04.397Z,101727.02
2018-05-25T09:05:10.515Z,101728.61
2018-05-25T09:08:15.718Z,101732.72
2018-05-25T09:11:21.566Z,101729.38
2018-05-25T09:14:27.657Z,101728.07
2018-05-25T09:17:33.599Z,101724.50
2018-05-25T09:20:38.833Z,101722.22
2018-05-25T09:23:44.537Z,101716.56
2018-05-25T09:26:50.472Z,101714.82
2018-05-25T09:29:56.301Z,101718.66
2018-05-25T09:33:01.498Z,101718.11
2018-05-25T09:36:08.467Z,101724.01
2018-05-25T09:39:13.670Z,101733.12
2018-05-25T09:42:19.407Z,101723.56
2018-05-25T09:45:24.357Z,101735.23
2018-05-25T09:48:31.298Z,101736.06
2018-05-25T09:51:36.734Z,101730.77
2018-05-25T09:54:41.937Z,101727.17
2018-05-25T09:57:57.072Z,101723.10
2018-05-25T10:01:03.091Z,101718.67
2018-05-25T10:04:10.155Z,101716.39
2018-05-25T10:07:15.349Z,101717.29
2018-05-25T10:10:22.297Z,101714.36
2018-05-25T10:13:28.109Z,101716.16
2018-05-25T10:16:33.314Z,101714.53
2018-05-25T10:19:38.949Z,101712.33
2018-05-25T10:22:44.890Z,101714.95
2018-05-25T10:25:51.013Z,101716.32
2018-05-25T10:28:56.834Z,101708.69
2018-05-25T10:32:03.594Z,101709.82
2018-05-25T10:35:08.588Z,101705.73
2018-05-25T10:38:13.999Z,101706.11
2018-05-25T10:41:19.228Z,101707.89
2018-05-25T10:44:25.463Z,101706.12
2018-05-25T10:47:30.521Z,101699.27
2018-05-25T10:50:36.229Z,101712.63
2018-05-25T10:53:41.869Z,101707.16
2018-05-25T10:56:47.074Z,101702.94
2018-05-25T10:59:53.825Z,101705.96
2018-05-25T11:02:59.021Z,101703.34
2018-05-25T11:06:05.146Z,101708.30
2018-05-25T11:09:10.359Z,101712.22
2018-05-25T11:12:16.482Z,101706.49
2018-05-25T11:15:22.863Z,101701.23
2018-05-25T11:18:28.387Z,101695.16
2018-05-25T11:21:34.026Z,101691.27
2018-05-25T11:24:40.052Z,101707.98
2018-05-25T11:27:47.303Z,101695.83
2018-05-25T11:30:52.507Z,101697.00
2018-05-25T11:33:58.321Z,101699.27
2018-05-25T11:37:03.841Z,101699.80
2018-05-25T11:40:08.802Z,101690.08
2018-05-25T11:43:15.655Z,101693.45
2018-05-25T11:46:20.849Z,101693.31
2018-05-25T11:49:26.986Z,101682.44
2018-05-25T11:52:32.626Z,101686.31
2018-05-25T11:55:38.008Z,101685.53
2018-05-25T11:58:43.759Z,101680.58
2018-05-25T12:01:49.843Z,101687.79
2018-05-25T12:04:56.193Z,101679.27
2018-05-25T12:08:01.597Z,101679.53
2018-05-25T12:11:08.552Z,101676.86
2018-05-25T12:14:14.369Z,101679.84
2018-05-25T12:17:19.578Z,101682.58
2018-05-25T12:20:25.222Z,101693.09
2018-05-25T12:23:30.834Z,101701.34
2018-05-25T12:26:37.766Z,101689.52
2018-05-25T12:29:43.396Z,101675.74
2018-05-25T12:32:49.318Z,101679.69
2018-05-25T12:35:55.342Z,101674.31
2018-05-25T12:39:00.540Z,101680.39
2018-05-25T12:42:06.798Z,101681.97
2018-05-25T12:45:14.168Z,101672.51
2018-05-25T12:48:19.588Z,101671.05
2018-05-25T12:51:24.810Z,101689.15
2018-05-25T12:54:31.009Z,101680.66
2018-05-25T12:57:37.143Z,101678.78
2018-05-25T13:00:43.796Z,101676.57
2018-05-25T13:03:49.611Z,101666.69
2018-05-25T13:06:54.826Z,101684.48
2018-05-25T13:10:00.825Z,101687.64
2018-05-25T13:13:06.971Z,101688.69
2018-05-25T13:16:12.192Z,101682.75
2018-05-25T13:19:17.798Z,101692.02
2018-05-25T13:22:23.521Z,101688.86
2018-05-25T13:25:28.727Z,101685.27
2018-05-25T13:28:34.444Z,101679.81
2018-05-25T13:31:40.837Z,101688.30
2018-05-25T13:34:47.177Z,101681.39
2018-05-25T13:38:03.301Z,101679.81
2018-05-25T13:41:09.421Z,101682.66
2018-05-25T13:44:14.651Z,101689.56
2018-05-25T13:47:20.801Z,101684.84
2018-05-25T13:50:26.925Z,101681.80
2018-05-25T13:53:34.579Z,101680.34
2018-05-25T13:56:40.182Z,101690.85
2018-05-25T13:59:46.397Z,101682.03
2018-05-25T14:02:53.269Z,101682.06
2018-05-25T14:05:58.840Z,101686.87
2018-05-25T14:09:03.417Z,101685.41
2018-05-25T14:12:09.528Z,101680.64
2018-05-25T14:15:16.056Z,101683.63
2018-05-25T14:18:21.257Z,101673.90
2018-05-25T14:21:27.795Z,101673.19
2018-05-25T14:24:33.321Z,101674.98
2018-05-25T14:27:39.224Z,101675.96
2018-05-25T14:30:45.859Z,101673.14
2018-05-25T14:33:51.692Z,101679.85
2018-05-25T14:36:58.433Z,101681.73
2018-05-25T14:40:03.504Z,101661.76
2018-05-25T14:43:09.439Z,101677.31
2018-05-25T14:46:15.565Z,101680.07
2018-05-25T14:49:22.372Z,101670.36
2018-05-25T14:52:28.181Z,101677.33
2018-05-25T14:55:33.802Z,101679.30
2018-05-25T14:58:38.998Z,101677.31
2018-05-25T15:01:44.205Z,101675.91
2018-05-25T15:04:50.337Z,101669.63
2018-05-25T15:07:55.245Z,101668.34
2018-05-25T15:11:01.197Z,101669.16
2018-05-25T15:14:07.412Z,101671.31
2018-05-25T15:17:13.636Z,101666.04
2018-05-25T15:20:19.193Z,101672.19
2018-05-25T15:23:25.370Z,101657.95
2018-05-25T15:26:30.741Z,101663.81
2018-05-25T15:29:37.450Z,101656.44
2018-05-25T15:32:42.992Z,101659.34
2018-05-25T15:35:48.258Z,101662.70
2018-05-25T15:38:53.594Z,101672.12
2018-05-25T15:41:59.000Z,101664.05
2018-05-25T15:45:04.086Z,101676.23
2018-05-25T15:48:09.023Z,101668.48
2018-05-25T15:51:14.233Z,101668.23
2018-05-25T15:54:19.598Z,101670.36
2018-05-25T15:57:25.258Z,101676.54
2018-05-25T16:00:30.189Z,101673.55
2018-05-25T16:03:36.030Z,101680.44
2018-05-25T16:06:41.648Z,101678.03
2018-05-25T16:09:47.526Z,101681.88
2018-05-25T16:12:52.885Z,101683.66
2018-05-25T16:15:57.805Z,101680.31
2018-05-25T16:19:03.438Z,101681.89
2018-05-25T16:22:08.544Z,101674.52
2018-05-25T16:25:14.758Z,101677.53
2018-05-25T16:28:20.296Z,101673.42
2018-05-25T16:31:26.690Z,101671.06
2018-05-25T16:34:32.229Z,101655.78
2018-05-25T16:37:37.562Z,101661.75
2018-05-25T16:40:42.985Z,101663.15
2018-05-25T16:43:49.107Z,101662.44
2018-05-25T16:46:54.954Z,101661.86
2018-05-25T16:50:00.898Z,101658.45
2018-05-25T16:53:06.446Z,101656.14
2018-05-25T16:56:11.801Z,101669.25
2018-05-25T16:59:18.206Z,101666.95
2018-05-25T17:02:23.318Z,101672.84
2018-05-25T17:05:29.801Z,101672.02
2018-05-25T17:08:34.747Z,101677.80
2018-05-25T17:11:39.865Z,101666.73
2018-05-25T17:14:58.923Z,101682.48
2018-05-25T17:18:04.274Z,101684.20
2018-05-25T17:21:09.512Z,101684.47
2018-05-25T17:24:15.426Z,101687.15
2018-05-25T17:27:20.630Z,101683.27
2018-05-25T17:30:26.824Z,101680.30
2018-05-25T17:33:32.845Z,101681.58
2018-05-25T17:36:38.698Z,101682.14
2018-05-25T17:39:43.670Z,101680.87
2018-05-25T17:42:48.596Z,101686.55
2018-05-25T17:45:54.915Z,101678.27
2018-05-25T17:49:00.277Z,101676.44
2018-05-25T17:52:05.200Z,101677.56
2018-05-25T17:55:10.403Z,101673.00
2018-05-25T17:58:16.686Z,101673.29
2018-05-25T18:01:21.614Z,101673.19
2018-05-25T18:04:27.638Z,101673.89
2018-05-25T18:07:33.481Z,101674.13
2018-05-25T18:10:38.841Z,101670.56
2018-05-25T18:13:44.698Z,101672.34
2018-05-25T18:16:50.070Z,101672.27
2018-05-25T18:19:55.279Z,101681.41
2018-05-25T18:23:00.406Z,101677.17
2018-05-25T18:26:05.757Z,101669.71
2018-05-25T18:29:10.680Z,101665.00
2018-05-25T18:32:16.039Z,101662.98
2018-05-25T18:35:20.977Z,101671.94
2018-05-25T18:38:25.895Z,101676.59
2018-05-25T18:41:31.278Z,101684.19
2018-05-25T18:44:36.197Z,101682.34
2018-05-25T18:47:42.447Z,101689.64
2018-05-25T18:50:47.773Z,101690.67
2018-05-25T18:54:03.800Z,101696.06
2018-05-25T18:57:08.718Z,101699.34
2018-05-25T19:00:14.664Z,101697.47
2018-05-25T19:03:20.193Z,101696.09
2018-05-25T19:06:25.121Z,101700.83
2018-05-25T19:09:30.037Z,101697.00
2018-05-25T19:12:35.879Z,101699.51
2018-05-25T19:15:40.841Z,101700.92
2018-05-25T19:18:46.597Z,101699.27
2018-05-25T19:21:52.453Z,101702.85
2018-05-25T19:24:57.789Z,101705.61
2018-05-25T19:28:02.723Z,101711.16
2018-05-25T19:31:08.158Z,101720.20
2018-05-25T19:34:14.003Z,101716.88
2018-05-25T19:37:19.393Z,101719.20
2018-05-25T19:40:24.317Z,101721.09
2018-05-25T19:43:29.243Z,101716.04
2018-05-25T19:46:35.066Z,101720.22
2018-05-25T19:49:40.421Z,101715.02
2018-05-25T19:52:46.174Z,101716.77
2018-05-25T19:55:51.145Z,101714.71
2018-05-25T19:58:56.085Z,101719.60
2018-05-25T20:02:01.528Z,101722.31
2018-05-25T20:05:06.467Z,101720.39
2018-05-25T20:08:12.825Z,101722.09
2018-05-25T20:11:19.172Z,101720.61
2018-05-25T20:14:24.098Z,101720.53
2018-05-25T20:17:29.930Z,101722.55
2018-05-25T20:20:35.260Z,101715.23
2018-05-25T20:23:41.014Z,101712.02
2018-05-25T20:26:46.859Z,101722.72
2018-05-25T20:29:52.985Z,101726.52
2018-05-25T20:32:58.742Z,101726.23
2018-05-25T20:36:04.613Z,101726.42
2018-05-25T20:39:09.533Z,101726.66
2018-05-25T20:42:14.463Z,101729.81
2018-05-25T20:45:19.393Z,101735.03
2018-05-25T20:48:25.241Z,101727.66
2018-05-25T20:51:30.161Z,101731.59
2018-05-25T20:54:35.517Z,101728.30
2018-05-25T20:57:40.445Z,101728.15
2018-05-25T21:00:45.649Z,101733.09
2018-05-25T21:03:51.498Z,101736.46
2018-05-25T21:06:57.434Z,101737.74
2018-05-25T21:10:02.971Z,101742.14
2018-05-25T21:13:08.923Z,101741.58
2018-05-25T21:16:14.694Z,101745.81
2018-05-25T21:19:19.633Z,101745.53
2018-05-25T21:22:24.544Z,101752.47
2018-05-25T21:25:30.405Z,101754.30
2018-05-25T21:28:36.236Z,101751.50
2018-05-25T21:31:41.610Z,101763.25
2018-05-25T21:34:47.224Z,101760.20
2018-05-25T21:37:53.177Z,101758.75
2018-05-25T21:40:58.113Z,101760.88
2018-05-25T21:44:03.470Z,101759.08
2018-05-25T21:47:08.393Z,101766.09
2018-05-25T21:50:13.333Z,101759.88
2018-05-25T21:53:18.848Z,101764.13
2018-05-25T21:56:24.064Z,101762.00
2018-05-25T21:59:29.909Z,101761.67
2018-05-25T22:02:35.761Z,101762.83
2018-05-25T22:05:41.809Z,101757.78
2018-05-25T22:08:47.657Z,101762.11
2018-05-25T22:11:52.582Z,101762.57
2018-05-25T22:14:57.517Z,101771.25
2018-05-25T22:18:02.437Z,101769.93
2018-05-25T22:21:08.290Z,101776.40
2018-05-25T22:24:13.227Z,101772.27
2018-05-25T22:27:18.957Z,101770.95
2018-05-25T22:30:24.169Z,101777.84
2018-05-25T22:33:29.107Z,101776.82
2018-05-25T22:36:34.238Z,101770.09
2018-05-25T22:39:39.573Z,101776.06
2018-05-25T22:42:55.768Z,101773.98
2018-05-25T22:46:18.549Z,101767.14
2018-05-25T22:49:41.093Z,101775.28
2018-05-25T22:52:56.721Z,101767.77
2018-05-25T22:56:03.058Z,101770.16
2018-05-25T22:59:08.913Z,101768.50
2018-05-25T23:02:14.535Z,101769.86
2018-05-25T23:05:20.474Z,101772.08
2018-05-25T23:08:26.534Z,101764.44
2018-05-25T23:11:32.466Z,101762.88
2018-05-25T23:14:38.580Z,101769.53
2018-05-25T23:17:45.417Z,101766.98
2018-05-25T23:20:51.228Z,101766.69
2018-05-25T23:23:57.353Z,101763.00
2018-05-25T23:27:04.341Z,101756.61
2018-05-25T23:30:09.971Z,101759.20
2018-05-25T23:33:16.009Z,101759.35
2018-05-25T23:36:22.144Z,101752.70
2018-05-25T23:39:28.165Z,101755.74
2018-05-25T23:42:34.097Z,101749.52
2018-05-25T23:45:39.310Z,101746.55
2018-05-25T23:48:44.536Z,101750.58
2018-05-25T23:51:49.737Z,101749.32
2018-05-25T23:54:55.677Z,101746.09
2018-05-25T23:58:01.818Z,101748.28
